Healing Springs, North Carolina
Current Conditions -  °F | °C
As of 6:55 AM on Monday 24 Nov 2014 (Local Time) from KHBI Reporting Station
Scattered Clouds Scattered Clouds  
Wind Chill: 60°   Ceiling: Unl
Heat Index: 60°   Visibility: 10mi
Dew Point: 55°   Wind: 10mph
Humidity: 83%   Direction: 200°SSW
Pressure: 29.81"   Gusts: NA
Location:  35.6015°N, 80.0858°W
Report Text: KHBI 241155Z AUTO 20009KT 10SM SCT035 16/13 A2981 RMK AO2 70066 T01550127 10177 20153
Loading
Personal Weather Stations






























Interactive Weather Map New forecast layout! Learn more

10-Day Weather Forecast

Advertisements
Track Severe Weather on mobile